sensor_id;sensor_type;location;lat;lon;timestamp;P1;durP1;ratioP1;P2;durP2;ratioP2
8885;SDS011;4479;51.162;13.906;2023-03-18T00:09:41;5.23;;;3.40;;
8885;SDS011;4479;51.162;13.906;2023-03-18T00:19:43;7.03;;;3.90;;
8885;SDS011;4479;51.162;13.906;2023-03-18T00:29:49;6.00;;;3.57;;
8885;SDS011;4479;51.162;13.906;2023-03-18T00:39:51;5.03;;;3.57;;
8885;SDS011;4479;51.162;13.906;2023-03-18T00:49:54;4.27;;;3.50;;
8885;SDS011;4479;51.162;13.906;2023-03-18T00:59:56;6.63;;;4.00;;
8885;SDS011;4479;51.162;13.906;2023-03-18T01:10:01;5.70;;;3.47;;
8885;SDS011;4479;51.162;13.906;2023-03-18T01:20:04;4.90;;;3.50;;
8885;SDS011;4479;51.162;13.906;2023-03-18T01:30:09;5.60;;;3.83;;
8885;SDS011;4479;51.162;13.906;2023-03-18T01:40:13;4.73;;;3.80;;
8885;SDS011;4479;51.162;13.906;2023-03-18T01:50:20;8.33;;;4.10;;
8885;SDS011;4479;51.162;13.906;2023-03-18T02:00:31;5.53;;;3.60;;
8885;SDS011;4479;51.162;13.906;2023-03-18T02:10:36;5.67;;;4.03;;
8885;SDS011;4479;51.162;13.906;2023-03-18T02:20:43;5.70;;;3.70;;
8885;SDS011;4479;51.162;13.906;2023-03-18T02:31:04;5.20;;;3.77;;
8885;SDS011;4479;51.162;13.906;2023-03-18T02:41:14;5.83;;;3.83;;
8885;SDS011;4479;51.162;13.906;2023-03-18T02:51:22;5.43;;;3.93;;
8885;SDS011;4479;51.162;13.906;2023-03-18T03:01:25;6.13;;;3.93;;
8885;SDS011;4479;51.162;13.906;2023-03-18T03:11:29;5.43;;;3.47;;
8885;SDS011;4479;51.162;13.906;2023-03-18T03:21:40;6.33;;;3.77;;
8885;SDS011;4479;51.162;13.906;2023-03-18T03:31:44;5.30;;;3.70;;
8885;SDS011;4479;51.162;13.906;2023-03-18T03:41:46;5.07;;;3.67;;
8885;SDS011;4479;51.162;13.906;2023-03-18T03:51:51;6.50;;;3.60;;
8885;SDS011;4479;51.162;13.906;2023-03-18T04:01:55;5.67;;;3.63;;
8885;SDS011;4479;51.162;13.906;2023-03-18T04:11:59;6.07;;;3.77;;
8885;SDS011;4479;51.162;13.906;2023-03-18T04:22:01;5.40;;;3.50;;
8885;SDS011;4479;51.162;13.906;2023-03-18T04:32:06;6.33;;;3.50;;
8885;SDS011;4479;51.162;13.906;2023-03-18T04:42:09;6.00;;;3.50;;
8885;SDS011;4479;51.162;13.906;2023-03-18T04:52:13;4.90;;;3.40;;
8885;SDS011;4479;51.162;13.906;2023-03-18T05:02:17;6.27;;;4.00;;
8885;SDS011;4479;51.162;13.906;2023-03-18T05:12:21;5.70;;;3.63;;
8885;SDS011;4479;51.162;13.906;2023-03-18T05:22:24;6.77;;;3.80;;
8885;SDS011;4479;51.162;13.906;2023-03-18T05:32:37;5.27;;;3.70;;
8885;SDS011;4479;51.162;13.906;2023-03-18T05:42:41;5.83;;;3.50;;
8885;SDS011;4479;51.162;13.906;2023-03-18T05:52:46;6.10;;;2.97;;
8885;SDS011;4479;51.162;13.906;2023-03-18T06:02:54;4.87;;;3.33;;
8885;SDS011;4479;51.162;13.906;2023-03-18T06:12:57;3.93;;;2.80;;
8885;SDS011;4479;51.162;13.906;2023-03-18T06:23:00;5.13;;;3.43;;
8885;SDS011;4479;51.162;13.906;2023-03-18T06:33:04;5.80;;;3.90;;
8885;SDS011;4479;51.162;13.906;2023-03-18T06:43:06;6.40;;;3.40;;
8885;SDS011;4479;51.162;13.906;2023-03-18T06:53:14;6.67;;;4.00;;
8885;SDS011;4479;51.162;13.906;2023-03-18T07:03:18;4.53;;;2.87;;
8885;SDS011;4479;51.162;13.906;2023-03-18T07:13:23;5.63;;;4.07;;
8885;SDS011;4479;51.162;13.906;2023-03-18T07:34:01;11.37;;;7.10;;
8885;SDS011;4479;51.162;13.906;2023-03-18T07:44:11;6.50;;;3.93;;
8885;SDS011;4479;51.162;13.906;2023-03-18T07:54:14;4.30;;;3.20;;
8885;SDS011;4479;51.162;13.906;2023-03-18T08:04:17;6.10;;;4.00;;
8885;SDS011;4479;51.162;13.906;2023-03-18T08:14:20;4.53;;;3.33;;
8885;SDS011;4479;51.162;13.906;2023-03-18T08:24:24;5.67;;;3.90;;
8885;SDS011;4479;51.162;13.906;2023-03-18T08:34:31;4.70;;;3.27;;
8885;SDS011;4479;51.162;13.906;2023-03-18T08:44:35;4.73;;;3.40;;
8885;SDS011;4479;51.162;13.906;2023-03-18T08:54:40;4.50;;;3.20;;
8885;SDS011;4479;51.162;13.906;2023-03-18T09:04:42;3.80;;;3.20;;
8885;SDS011;4479;51.162;13.906;2023-03-18T09:14:46;5.97;;;3.70;;
8885;SDS011;4479;51.162;13.906;2023-03-18T09:24:48;5.03;;;3.70;;
8885;SDS011;4479;51.162;13.906;2023-03-18T09:34:52;5.13;;;3.50;;
8885;SDS011;4479;51.162;13.906;2023-03-18T09:44:55;5.93;;;3.93;;
8885;SDS011;4479;51.162;13.906;2023-03-18T09:55:02;5.97;;;3.80;;
8885;SDS011;4479;51.162;13.906;2023-03-18T10:05:08;5.97;;;3.67;;
8885;SDS011;4479;51.162;13.906;2023-03-18T10:15:16;7.60;;;4.00;;
8885;SDS011;4479;51.162;13.906;2023-03-18T10:25:22;5.90;;;4.00;;
8885;SDS011;4479;51.162;13.906;2023-03-18T10:35:29;4.37;;;3.53;;
8885;SDS011;4479;51.162;13.906;2023-03-18T10:45:37;4.97;;;3.50;;
8885;SDS011;4479;51.162;13.906;2023-03-18T10:55:44;5.20;;;3.90;;
8885;SDS011;4479;51.162;13.906;2023-03-18T11:05:51;5.80;;;3.70;;
8885;SDS011;4479;51.162;13.906;2023-03-18T11:15:56;6.87;;;3.80;;
8885;SDS011;4479;51.162;13.906;2023-03-18T11:25:58;6.07;;;3.80;;
8885;SDS011;4479;51.162;13.906;2023-03-18T11:36:05;5.83;;;4.30;;
8885;SDS011;4479;51.162;13.906;2023-03-18T11:46:09;5.47;;;4.33;;
8885;SDS011;4479;51.162;13.906;2023-03-18T11:56:15;7.07;;;4.27;;
8885;SDS011;4479;51.162;13.906;2023-03-18T12:06:23;5.90;;;4.13;;
8885;SDS011;4479;51.162;13.906;2023-03-18T12:16:32;6.90;;;4.13;;
8885;SDS011;4479;51.162;13.906;2023-03-18T12:26:43;4.67;;;4.07;;
8885;SDS011;4479;51.162;13.906;2023-03-18T12:36:54;4.87;;;3.93;;
8885;SDS011;4479;51.162;13.906;2023-03-18T12:47:05;5.77;;;4.27;;
8885;SDS011;4479;51.162;13.906;2023-03-18T12:57:11;5.03;;;4.13;;
8885;SDS011;4479;51.162;13.906;2023-03-18T13:07:16;5.90;;;4.27;;
8885;SDS011;4479;51.162;13.906;2023-03-18T13:17:25;5.93;;;4.40;;
8885;SDS011;4479;51.162;13.906;2023-03-18T13:27:40;6.47;;;3.97;;
8885;SDS011;4479;51.162;13.906;2023-03-18T13:38:11;5.30;;;4.40;;
8885;SDS011;4479;51.162;13.906;2023-03-18T13:48:29;6.07;;;4.50;;
8885;SDS011;4479;51.162;13.906;2023-03-18T13:58:42;5.47;;;4.73;;
8885;SDS011;4479;51.162;13.906;2023-03-18T14:08:47;6.60;;;5.13;;
8885;SDS011;4479;51.162;13.906;2023-03-18T14:18:55;6.57;;;5.07;;
8885;SDS011;4479;51.162;13.906;2023-03-18T14:29:13;7.07;;;5.00;;
8885;SDS011;4479;51.162;13.906;2023-03-18T14:39:19;7.23;;;5.03;;
8885;SDS011;4479;51.162;13.906;2023-03-18T14:49:32;6.37;;;4.60;;
8885;SDS011;4479;51.162;13.906;2023-03-18T14:59:38;6.23;;;4.63;;
8885;SDS011;4479;51.162;13.906;2023-03-18T15:09:43;6.07;;;5.17;;
8885;SDS011;4479;51.162;13.906;2023-03-18T15:19:49;6.07;;;4.90;;
8885;SDS011;4479;51.162;13.906;2023-03-18T15:29:51;6.27;;;4.93;;
8885;SDS011;4479;51.162;13.906;2023-03-18T15:39:56;7.10;;;5.23;;
8885;SDS011;4479;51.162;13.906;2023-03-18T15:50:13;7.40;;;5.60;;
8885;SDS011;4479;51.162;13.906;2023-03-18T16:00:26;7.03;;;5.20;;
8885;SDS011;4479;51.162;13.906;2023-03-18T16:10:29;6.83;;;5.40;;
8885;SDS011;4479;51.162;13.906;2023-03-18T16:20:33;7.50;;;6.03;;
8885;SDS011;4479;51.162;13.906;2023-03-18T16:30:35;5.93;;;5.10;;
8885;SDS011;4479;51.162;13.906;2023-03-18T16:40:44;8.57;;;6.00;;
8885;SDS011;4479;51.162;13.906;2023-03-18T16:50:47;8.27;;;6.63;;
8885;SDS011;4479;51.162;13.906;2023-03-18T17:00:53;8.17;;;6.53;;
8885;SDS011;4479;51.162;13.906;2023-03-18T17:10:56;9.43;;;6.73;;
8885;SDS011;4479;51.162;13.906;2023-03-18T17:21:02;10.07;;;6.57;;
8885;SDS011;4479;51.162;13.906;2023-03-18T17:31:05;10.80;;;6.97;;
8885;SDS011;4479;51.162;13.906;2023-03-18T17:41:13;12.87;;;7.33;;
8885;SDS011;4479;51.162;13.906;2023-03-18T17:51:17;9.80;;;7.23;;
8885;SDS011;4479;51.162;13.906;2023-03-18T18:01:24;9.53;;;6.90;;
8885;SDS011;4479;51.162;13.906;2023-03-18T18:11:28;10.53;;;7.47;;
8885;SDS011;4479;51.162;13.906;2023-03-18T18:21:32;12.83;;;8.17;;
8885;SDS011;4479;51.162;13.906;2023-03-18T18:31:35;10.93;;;7.87;;
8885;SDS011;4479;51.162;13.906;2023-03-18T18:41:40;29.23;;;23.23;;
8885;SDS011;4479;51.162;13.906;2023-03-18T18:51:45;33.43;;;23.80;;
8885;SDS011;4479;51.162;13.906;2023-03-18T19:01:50;23.23;;;16.53;;
8885;SDS011;4479;51.162;13.906;2023-03-18T19:11:53;23.00;;;19.40;;
8885;SDS011;4479;51.162;13.906;2023-03-18T19:22:02;20.17;;;15.53;;
8885;SDS011;4479;51.162;13.906;2023-03-18T19:32:04;36.13;;;22.67;;
8885;SDS011;4479;51.162;13.906;2023-03-18T19:42:12;16.43;;;12.17;;
8885;SDS011;4479;51.162;13.906;2023-03-18T19:52:16;11.63;;;8.47;;
8885;SDS011;4479;51.162;13.906;2023-03-18T20:02:22;12.13;;;8.53;;
8885;SDS011;4479;51.162;13.906;2023-03-18T20:12:27;14.30;;;11.07;;
8885;SDS011;4479;51.162;13.906;2023-03-18T20:22:36;16.67;;;11.77;;
8885;SDS011;4479;51.162;13.906;2023-03-18T20:32:42;11.17;;;7.77;;
8885;SDS011;4479;51.162;13.906;2023-03-18T20:42:46;10.80;;;7.77;;
8885;SDS011;4479;51.162;13.906;2023-03-18T20:53:30;13.10;;;8.80;;
8885;SDS011;4479;51.162;13.906;2023-03-18T21:03:39;14.20;;;9.80;;
8885;SDS011;4479;51.162;13.906;2023-03-18T21:14:34;11.63;;;8.57;;
8885;SDS011;4479;51.162;13.906;2023-03-18T21:24:37;11.87;;;8.33;;
8885;SDS011;4479;51.162;13.906;2023-03-18T21:34:39;11.47;;;8.07;;
8885;SDS011;4479;51.162;13.906;2023-03-18T21:44:43;11.40;;;8.03;;
8885;SDS011;4479;51.162;13.906;2023-03-18T21:54:45;12.07;;;8.47;;
8885;SDS011;4479;51.162;13.906;2023-03-18T22:04:49;11.63;;;7.30;;
8885;SDS011;4479;51.162;13.906;2023-03-18T22:14:51;13.63;;;7.73;;
8885;SDS011;4479;51.162;13.906;2023-03-18T22:24:55;10.03;;;7.00;;
8885;SDS011;4479;51.162;13.906;2023-03-18T22:34:57;10.83;;;8.00;;
8885;SDS011;4479;51.162;13.906;2023-03-18T22:45:01;11.07;;;7.60;;
8885;SDS011;4479;51.162;13.906;2023-03-18T22:55:09;9.77;;;7.13;;
8885;SDS011;4479;51.162;13.906;2023-03-18T23:05:21;10.33;;;7.10;;
8885;SDS011;4479;51.162;13.906;2023-03-18T23:15:23;12.40;;;7.83;;
8885;SDS011;4479;51.162;13.906;2023-03-18T23:25:27;11.33;;;7.90;;
8885;SDS011;4479;51.162;13.906;2023-03-18T23:35:29;10.67;;;7.57;;
8885;SDS011;4479;51.162;13.906;2023-03-18T23:45:33;10.33;;;8.10;;
8885;SDS011;4479;51.162;13.906;2023-03-18T23:55:36;11.10;;;7.70;;
